Terminal Aerodrome Forecast
Issued by NWS

Home | Current Version | Previous Version | Graphics & Text | Print | Product List | Glossary On
Versions: 1 2 3 4 5 6 7 8 9 10 11 12 13 14 15 16 17 18 19 20 21 22 23 24
000
FTUS43 KGRB 261447 AAA
TAFAUW
TAF AMD
KAUW 261447Z 2615/2712 21006KT P6SM SCT030 BKN120
     FM261600 22008KT 4SM -SHRA BKN025 OVC070
      TEMPO 2616/2620 3SM TSRA BR BKN018CB
     FM262100 12009KT 4SM SHRA BKN015 OVC035
      TEMPO 2623/2703 1 1/2SM +RA BKN006
     FM270300 VRB03KT 1SM -RA BR OVC004
     FM271000 30007KT 4SM -RA SCT005 OVC015=

USA.gov is the U.S. government's official web portal to all federal, state and local government web resources and services.